createdAt,value
2022-12-19T00:01:25.828Z,32.47
2022-12-19T00:03:58.915Z,36.43
2022-12-19T00:06:26.544Z,36.53
2022-12-19T00:08:54.610Z,33.87
2022-12-19T00:11:23.033Z,34.67
2022-12-19T00:13:49.942Z,33.80
2022-12-19T00:16:19.773Z,32.77
2022-12-19T00:18:47.880Z,35.40
2022-12-19T00:21:19.466Z,33.47
2022-12-19T00:23:46.486Z,31.37
2022-12-19T00:26:26.844Z,32.57
2022-12-19T00:28:57.392Z,32.80
2022-12-19T00:31:26.101Z,33.33
2022-12-19T00:33:52.671Z,35.77
2022-12-19T00:36:26.260Z,34.47
2022-12-19T00:38:55.112Z,33.13
2022-12-19T00:41:29.519Z,33.63
2022-12-19T00:43:58.762Z,34.33
2022-12-19T00:46:25.778Z,33.93
2022-12-19T00:48:52.256Z,37.13
2022-12-19T00:51:28.655Z,34.83
2022-12-19T00:53:56.897Z,32.80
2022-12-19T00:56:30.463Z,31.00
2022-12-19T00:58:57.354Z,36.57
2022-12-19T01:01:37.371Z,33.10
2022-12-19T01:07:01.140Z,34.70
2022-12-19T01:09:33.888Z,28.20
2022-12-19T01:12:19.465Z,34.87
2022-12-19T01:14:47.375Z,33.90
2022-12-19T01:17:13.496Z,33.67
2022-12-19T01:19:43.993Z,33.77
2022-12-19T01:22:12.585Z,31.90
2022-12-19T01:24:39.518Z,32.07
2022-12-19T01:27:05.642Z,34.20
2022-12-19T01:29:32.367Z,38.97
2022-12-19T01:31:59.847Z,35.47
2022-12-19T01:34:26.925Z,31.57
2022-12-19T01:36:53.261Z,36.50
2022-12-19T01:39:19.381Z,36.90
2022-12-19T01:41:46.804Z,32.07
2022-12-19T01:44:12.925Z,33.03
2022-12-19T01:46:49.090Z,35.47
2022-12-19T01:49:31.696Z,32.40
2022-12-19T01:52:04.229Z,34.60
2022-12-19T01:54:38.153Z,34.90
2022-12-19T01:57:11.473Z,31.10
2022-12-19T01:59:45.363Z,31.60
2022-12-19T02:02:21.169Z,35.63
2022-12-19T02:04:47.836Z,30.90
2022-12-19T02:07:17.745Z,38.00
2022-12-19T02:09:56.507Z,36.13
2022-12-19T02:12:34.797Z,35.47
2022-12-19T02:15:03.649Z,34.53
2022-12-19T02:17:55.820Z,33.90
2022-12-19T02:21:19.167Z,32.43
2022-12-19T02:24:41.813Z,32.77
2022-12-19T02:27:39.970Z,33.87
2022-12-19T02:30:17.381Z,30.83
2022-12-19T02:33:16.694Z,34.90
2022-12-19T02:35:52.557Z,32.30
2022-12-19T02:38:46.222Z,34.33
2022-12-19T02:41:26.509Z,33.20
2022-12-19T02:43:59.058Z,33.00
2022-12-19T02:46:28.522Z,34.87
2022-12-19T02:48:57.406Z,37.87
2022-12-19T02:51:23.870Z,34.97
2022-12-19T02:53:50.722Z,39.13
2022-12-19T02:56:34.751Z,31.77
2022-12-19T02:59:27.050Z,30.03
2022-12-19T03:02:30.856Z,33.13
2022-12-19T03:05:38.990Z,33.87
2022-12-19T03:08:15.769Z,32.03
2022-12-19T03:10:59.968Z,32.63
2022-12-19T03:13:44.396Z,32.60
2022-12-19T03:16:12.755Z,30.37
2022-12-19T03:18:39.441Z,37.57
2022-12-19T03:21:26.487Z,34.07
2022-12-19T03:23:55.259Z,33.97
2022-12-19T03:26:27.661Z,32.17
2022-12-19T03:29:15.077Z,30.97
2022-12-19T03:31:44.165Z,33.33
2022-12-19T03:34:24.503Z,34.37
2022-12-19T03:37:05.513Z,30.17
2022-12-19T03:39:33.585Z,34.27
2022-12-19T03:42:21.114Z,35.07
2022-12-19T03:44:50.440Z,30.83
2022-12-19T03:47:32.103Z,35.67
2022-12-19T03:49:58.643Z,35.23
2022-12-19T03:52:55.719Z,29.77
2022-12-19T03:55:46.582Z,35.43
2022-12-19T03:58:31.112Z,32.70
2022-12-19T04:01:00.089Z,33.77
2022-12-19T04:03:29.255Z,30.87
2022-12-19T04:05:57.530Z,39.90
2022-12-19T04:08:24.838Z,34.77
2022-12-19T04:11:04.412Z,38.83
2022-12-19T04:13:46.090Z,33.67
2022-12-19T04:16:44.055Z,32.40
2022-12-19T04:19:20.200Z,31.97
2022-12-19T04:22:02.857Z,33.07
2022-12-19T04:24:35.368Z,35.17
2022-12-19T04:27:06.142Z,35.23
2022-12-19T04:29:36.179Z,36.90
2022-12-19T04:32:05.798Z,34.07
2022-12-19T04:34:32.464Z,31.57
2022-12-19T04:36:58.896Z,36.20
2022-12-19T04:39:25.009Z,32.13
2022-12-19T04:41:51.662Z,34.63
2022-12-19T04:44:17.809Z,35.77
2022-12-19T04:46:44.238Z,32.27
2022-12-19T04:49:10.397Z,35.37
2022-12-19T04:51:36.597Z,31.87
2022-12-19T04:54:03.334Z,34.20
2022-12-19T04:56:29.702Z,31.13
2022-12-19T04:58:59.699Z,41.33
2022-12-19T05:01:26.632Z,33.30
2022-12-19T05:03:55.706Z,36.93
2022-12-19T05:06:23.964Z,30.07
2022-12-19T05:08:50.299Z,32.70
2022-12-19T05:11:19.734Z,31.20
2022-12-19T05:13:49.043Z,32.20
2022-12-19T05:16:15.557Z,33.30
2022-12-19T05:18:43.030Z,32.57
2022-12-19T05:21:10.262Z,34.13
2022-12-19T05:23:36.705Z,31.00
2022-12-19T05:26:05.321Z,30.17
2022-12-19T05:28:32.506Z,30.33
2022-12-19T05:31:14.571Z,32.33
2022-12-19T05:33:42.312Z,28.20
2022-12-19T05:36:10.766Z,29.23
2022-12-19T05:38:37.330Z,31.23
2022-12-19T05:41:15.579Z,27.47
2022-12-19T05:43:43.885Z,31.33
2022-12-19T05:46:10.460Z,31.23
2022-12-19T05:48:37.318Z,27.80
2022-12-19T05:51:03.703Z,30.10
2022-12-19T05:53:30.091Z,28.73
2022-12-19T05:56:11.994Z,31.30
2022-12-19T05:58:39.646Z,27.57
2022-12-19T06:01:14.361Z,26.60
2022-12-19T06:03:41.662Z,27.50
2022-12-19T06:06:12.049Z,25.17
2022-12-19T06:08:38.900Z,24.40
2022-12-19T06:11:07.539Z,18.13
2022-12-19T06:13:35.294Z,23.03
2022-12-19T06:16:15.016Z,21.87
2022-12-19T06:18:45.144Z,23.20
2022-12-19T06:21:21.010Z,22.63
2022-12-19T06:23:48.243Z,22.70
2022-12-19T06:26:20.160Z,22.47
2022-12-19T06:28:51.949Z,23.83
2022-12-19T06:31:21.873Z,20.10
2022-12-19T06:33:48.194Z,18.93
2022-12-19T06:36:19.328Z,19.97
2022-12-19T06:38:45.698Z,20.57
2022-12-19T06:41:31.958Z,18.60
2022-12-19T06:44:03.335Z,17.67
2022-12-19T06:46:30.488Z,19.73
2022-12-19T06:48:57.167Z,15.63
2022-12-19T06:51:23.529Z,17.17
2022-12-19T06:53:50.675Z,17.40
2022-12-19T06:56:19.586Z,18.07
2022-12-19T06:58:46.895Z,16.97
2022-12-19T07:01:19.233Z,16.63
2022-12-19T07:03:48.450Z,20.57
2022-12-19T07:06:14.652Z,19.73
2022-12-19T07:08:41.151Z,19.30
2022-12-19T07:11:07.389Z,17.30
2022-12-19T07:13:33.761Z,17.60
2022-12-19T07:16:04.339Z,17.80
2022-12-19T07:18:36.446Z,17.93
2022-12-19T07:21:04.201Z,20.20
2022-12-19T07:23:30.896Z,24.73
2022-12-19T07:25:57.566Z,19.57
2022-12-19T07:28:24.160Z,21.73
2022-12-19T07:30:50.525Z,25.83
2022-12-19T07:33:21.274Z,25.13
2022-12-19T07:35:48.422Z,21.97
2022-12-19T07:38:14.551Z,25.63
2022-12-19T07:40:40.720Z,23.03
2022-12-19T07:43:06.929Z,23.73
2022-12-19T07:45:36.480Z,24.30
2022-12-19T07:48:04.987Z,25.47
2022-12-19T07:50:31.967Z,26.63
2022-12-19T07:52:58.679Z,24.67
2022-12-19T07:55:26.090Z,24.90
2022-12-19T07:57:53.038Z,26.23
2022-12-19T08:00:19.566Z,25.23
2022-12-19T08:02:46.072Z,24.90
2022-12-19T08:05:12.739Z,25.93
2022-12-19T08:07:39.977Z,28.10
2022-12-19T08:10:06.976Z,25.63
2022-12-19T08:12:33.604Z,22.40
2022-12-19T08:15:00.027Z,26.20
2022-12-19T08:17:26.448Z,24.47
2022-12-19T08:19:52.925Z,25.20
2022-12-19T08:22:19.046Z,21.73
2022-12-19T08:24:45.389Z,25.50
2022-12-19T08:27:11.558Z,24.00
2022-12-19T08:29:37.938Z,25.27
2022-12-19T08:32:04.420Z,25.17
2022-12-19T08:34:31.017Z,26.50
2022-12-19T08:36:57.203Z,26.10
2022-12-19T08:39:23.589Z,28.17
2022-12-19T08:41:49.948Z,21.83
2022-12-19T08:44:16.329Z,24.67
2022-12-19T08:46:49.497Z,23.67
2022-12-19T08:49:16.593Z,25.60
2022-12-19T08:51:42.951Z,23.43
2022-12-19T08:54:10.924Z,27.67
2022-12-19T08:56:38.615Z,23.30
2022-12-19T08:59:12.081Z,25.33
2022-12-19T09:01:39.539Z,23.57
2022-12-19T09:05:53.230Z,25.63
2022-12-19T09:06:52.084Z,23.50
2022-12-19T09:09:18.502Z,25.03
2022-12-19T09:11:47.930Z,25.53
2022-12-19T09:14:14.713Z,24.37
2022-12-19T09:16:47.526Z,26.77
2022-12-19T09:19:15.612Z,23.90
2022-12-19T09:21:42.767Z,24.87
2022-12-19T09:24:09.497Z,23.87
2022-12-19T09:26:38.020Z,25.33
2022-12-19T09:29:11.407Z,24.47
2022-12-19T09:31:51.557Z,23.67
2022-12-19T09:34:33.115Z,23.97
2022-12-19T09:37:10.364Z,23.67
2022-12-19T09:39:42.879Z,22.77
2022-12-19T09:42:24.257Z,26.00
2022-12-19T09:45:31.346Z,24.33
2022-12-19T09:48:00.743Z,24.03
2022-12-19T09:50:47.196Z,22.13
2022-12-19T09:53:34.972Z,24.43
2022-12-19T09:56:05.420Z,23.07
2022-12-19T09:58:40.648Z,21.07
2022-12-19T10:01:33.165Z,22.23
2022-12-19T10:04:09.458Z,21.47
2022-12-19T10:07:12.557Z,20.67
2022-12-19T10:11:26.986Z,25.07
2022-12-19T10:12:52.262Z,20.57
2022-12-19T10:15:36.015Z,22.83
2022-12-19T10:18:16.203Z,19.73
2022-12-19T10:22:16.255Z,26.00
2022-12-19T10:24:56.672Z,23.07
2022-12-19T10:27:58.862Z,21.80
2022-12-19T10:30:31.751Z,24.03
2022-12-19T10:33:20.627Z,21.13
2022-12-19T10:35:56.007Z,24.97
2022-12-19T10:38:55.034Z,28.97
2022-12-19T10:41:29.443Z,22.30
2022-12-19T10:44:08.835Z,26.70
2022-12-19T10:46:49.331Z,21.30
2022-12-19T10:49:17.410Z,20.37
2022-12-19T10:51:58.743Z,28.90
2022-12-19T10:54:37.073Z,26.23
2022-12-19T10:57:21.339Z,25.73
2022-12-19T11:00:15.883Z,26.37
2022-12-19T11:02:52.879Z,27.57
2022-12-19T11:05:25.528Z,27.43
2022-12-19T11:08:06.685Z,29.70
2022-12-19T11:12:52.208Z,26.13
2022-12-19T11:19:41.645Z,24.70
2022-12-19T11:20:09.618Z,25.80
2022-12-19T11:29:27.450Z,28.90
2022-12-19T11:29:39.997Z,27.17
2022-12-19T11:29:44.181Z,27.00
2022-12-19T11:30:09.327Z,25.73
2022-12-19T11:34:20.659Z,24.43
2022-12-19T11:37:00.955Z,23.80
2022-12-19T11:39:44.529Z,22.80
2022-12-19T11:42:41.107Z,25.07
2022-12-19T11:45:27.187Z,24.93
2022-12-19T11:48:26.647Z,27.13
2022-12-19T11:51:07.331Z,28.07
2022-12-19T11:54:18.784Z,27.07
2022-12-19T11:56:45.175Z,29.10
2022-12-19T11:59:28.436Z,26.73
2022-12-19T12:02:19.261Z,28.50
2022-12-19T12:05:04.909Z,28.47
2022-12-19T12:08:48.169Z,30.47
2022-12-19T12:14:24.945Z,27.43
2022-12-19T12:26:05.839Z,33.10
2022-12-19T12:30:03.715Z,24.47
2022-12-19T12:31:06.984Z,26.93
2022-12-19T12:31:46.435Z,19.90
2022-12-19T12:31:48.724Z,27.53
2022-12-19T12:32:06.516Z,29.23
2022-12-19T12:35:40.777Z,27.57
2022-12-19T12:42:04.998Z,27.10
2022-12-19T12:44:45.604Z,24.27
2022-12-19T12:47:25.817Z,25.93
2022-12-19T12:50:04.662Z,26.70
2022-12-19T12:52:38.296Z,24.50
2022-12-19T12:55:22.015Z,27.50
2022-12-19T12:57:48.179Z,23.30
2022-12-19T13:00:30.146Z,25.43
2022-12-19T13:03:09.005Z,27.03
2022-12-19T13:05:52.787Z,24.60
2022-12-19T13:08:34.162Z,23.93
2022-12-19T13:11:32.936Z,28.00
2022-12-19T13:14:00.395Z,20.60
2022-12-19T13:16:44.798Z,26.20
2022-12-19T13:19:29.234Z,26.20
2022-12-19T13:22:04.625Z,24.97
2022-12-19T13:24:54.857Z,21.87
2022-12-19T13:27:20.871Z,24.07
2022-12-19T13:29:55.913Z,22.57
2022-12-19T13:32:23.320Z,27.70
2022-12-19T13:35:52.132Z,22.00
2022-12-19T13:39:56.519Z,22.93
2022-12-19T13:41:25.088Z,24.23
2022-12-19T13:43:59.372Z,23.23
2022-12-19T13:46:43.679Z,24.47
2022-12-19T13:49:26.464Z,21.80
2022-12-19T13:51:58.093Z,24.10
2022-12-19T13:54:32.289Z,23.67
2022-12-19T13:56:58.979Z,23.77
2022-12-19T13:59:35.803Z,23.37
2022-12-19T14:02:30.983Z,24.03
2022-12-19T14:04:57.953Z,25.00
2022-12-19T14:07:42.326Z,20.10
2022-12-19T14:11:29.488Z,25.07
2022-12-19T14:13:46.238Z,31.47
2022-12-19T14:16:19.271Z,22.97
2022-12-19T14:18:49.785Z,23.67
2022-12-19T14:22:03.651Z,21.20
2022-12-19T14:24:24.420Z,24.93
2022-12-19T14:28:25.164Z,24.53
2022-12-19T14:30:27.442Z,20.50
2022-12-19T14:33:44.992Z,22.73
2022-12-19T14:36:11.993Z,22.50
2022-12-19T14:39:24.875Z,18.53
2022-12-19T14:41:47.382Z,18.90
2022-12-19T14:51:51.690Z,18.57
2022-12-19T14:52:34.604Z,17.23
2022-12-19T14:54:10.727Z,17.40
2022-12-19T14:54:48.290Z,16.03
2022-12-19T14:56:04.675Z,18.73
2022-12-19T14:58:53.011Z,17.00
2022-12-19T15:01:25.589Z,15.70
2022-12-19T15:04:50.608Z,14.57
2022-12-19T15:07:29.433Z,19.07
2022-12-19T15:11:00.432Z,15.60
2022-12-19T15:14:46.908Z,14.50
2022-12-19T15:16:02.471Z,15.57
2022-12-19T15:18:31.597Z,14.63
2022-12-19T15:21:01.138Z,13.40
2022-12-19T15:23:28.685Z,14.67
2022-12-19T15:26:04.108Z,13.13
2022-12-19T15:28:42.296Z,14.17
2022-12-19T15:31:33.877Z,16.60
2022-12-19T15:34:46.635Z,14.53
2022-12-19T15:37:13.767Z,13.73
2022-12-19T15:39:41.319Z,19.30
2022-12-19T15:42:20.433Z,14.93
2022-12-19T15:44:48.950Z,17.50
2022-12-19T15:47:25.921Z,13.93
2022-12-19T15:49:52.261Z,14.77
2022-12-19T15:52:20.819Z,11.80
2022-12-19T15:54:49.152Z,15.87
2022-12-19T15:57:38.616Z,11.47
2022-12-19T16:00:18.519Z,13.53
2022-12-19T16:03:22.578Z,11.93
2022-12-19T16:05:32.984Z,11.43
2022-12-19T16:07:59.263Z,10.80
2022-12-19T16:10:26.158Z,11.67
2022-12-19T16:12:56.770Z,14.50
2022-12-19T16:15:31.803Z,12.90
2022-12-19T16:18:02.163Z,11.97
2022-12-19T16:20:33.487Z,11.30
2022-12-19T16:22:59.612Z,12.10
2022-12-19T16:25:36.696Z,13.93
2022-12-19T16:28:06.876Z,13.50
2022-12-19T16:30:34.371Z,10.57
2022-12-19T16:33:00.757Z,11.27
2022-12-19T16:36:02.553Z,13.90
2022-12-19T16:38:17.105Z,10.40
2022-12-19T16:40:44.357Z,10.77
2022-12-19T16:43:31.333Z,12.27
2022-12-19T16:46:01.444Z,12.40
2022-12-19T16:48:29.467Z,8.77
2022-12-19T16:50:58.501Z,11.10
2022-12-19T16:53:24.723Z,9.03
2022-12-19T16:55:51.358Z,11.70
2022-12-19T16:58:21.522Z,13.43
2022-12-19T17:00:50.335Z,9.90
2022-12-19T17:03:51.903Z,9.77
2022-12-19T17:06:20.614Z,10.37
2022-12-19T17:08:47.657Z,10.10
2022-12-19T17:11:19.426Z,9.93
2022-12-19T17:13:49.440Z,10.10
2022-12-19T17:16:16.735Z,10.17
2022-12-19T17:18:45.313Z,12.70
2022-12-19T17:21:21.679Z,9.97
2022-12-19T17:23:49.925Z,10.07
2022-12-19T17:26:18.275Z,11.33
2022-12-19T17:28:47.500Z,12.67
2022-12-19T17:31:25.142Z,10.37
2022-12-19T17:33:53.805Z,10.57
2022-12-19T17:36:25.499Z,9.93
2022-12-19T17:38:53.077Z,14.37
2022-12-19T17:41:19.246Z,12.17
2022-12-19T17:43:45.346Z,11.73
2022-12-19T17:46:20.913Z,14.10
2022-12-19T17:48:51.043Z,11.37
2022-12-19T17:51:19.774Z,12.90
2022-12-19T17:53:46.425Z,13.93
2022-12-19T17:56:18.858Z,14.73
2022-12-19T17:58:45.010Z,13.90
2022-12-19T18:01:23.438Z,13.07
2022-12-19T18:03:53.051Z,12.00
2022-12-19T18:06:20.751Z,10.33
2022-12-19T18:08:47.073Z,15.77
2022-12-19T18:11:23.015Z,13.53
2022-12-19T18:13:50.128Z,14.17
2022-12-19T18:16:21.168Z,13.80
2022-12-19T18:18:47.644Z,14.50
2022-12-19T18:21:17.456Z,14.30
2022-12-19T18:23:44.282Z,12.87
2022-12-19T18:26:11.759Z,12.70
2022-12-19T18:28:41.709Z,15.10
2022-12-19T18:31:26.747Z,16.07
2022-12-19T18:33:59.589Z,13.13
2022-12-19T18:36:39.539Z,12.83
2022-12-19T18:39:18.620Z,13.97
2022-12-19T18:41:44.744Z,18.53
2022-12-19T18:44:10.974Z,13.70
2022-12-19T18:46:37.770Z,15.70
2022-12-19T18:49:05.693Z,14.00
2022-12-19T18:51:32.243Z,16.03
2022-12-19T18:53:59.270Z,15.67
2022-12-19T18:56:25.636Z,16.67
2022-12-19T18:58:51.756Z,11.13
2022-12-19T19:01:20.820Z,14.17
2022-12-19T19:03:53.624Z,15.33
2022-12-19T19:06:27.597Z,12.30
2022-12-19T19:08:56.220Z,14.53
2022-12-19T19:11:49.377Z,13.87
2022-12-19T19:14:15.611Z,13.20
2022-12-19T19:16:41.802Z,13.83
2022-12-19T19:19:15.059Z,13.97
2022-12-19T19:21:41.844Z,16.53
2022-12-19T19:24:11.617Z,15.83
2022-12-19T19:26:37.749Z,14.27
2022-12-19T19:29:04.654Z,15.40
2022-12-19T19:31:37.980Z,14.80
2022-12-19T19:34:17.488Z,14.03
2022-12-19T19:36:49.356Z,16.33
2022-12-19T19:39:16.658Z,14.30
2022-12-19T19:41:42.764Z,12.87
2022-12-19T19:44:08.876Z,16.20
2022-12-19T19:46:36.221Z,20.00
2022-12-19T19:49:02.489Z,22.57
2022-12-19T19:51:28.661Z,21.53
2022-12-19T19:53:54.968Z,18.63
2022-12-19T19:56:21.209Z,14.40
2022-12-19T19:58:47.330Z,15.33
2022-12-19T20:01:14.605Z,15.53
2022-12-19T20:03:42.881Z,15.13
2022-12-19T20:06:10.214Z,14.47
2022-12-19T20:08:39.667Z,15.60
2022-12-19T20:11:07.613Z,16.63
2022-12-19T20:13:34.204Z,14.23
2022-12-19T20:16:07.055Z,13.27
2022-12-19T20:18:34.771Z,15.70
2022-12-19T20:21:01.659Z,12.90
2022-12-19T20:23:28.262Z,14.50
2022-12-19T20:25:59.855Z,13.80
2022-12-19T20:28:25.978Z,14.13
2022-12-19T20:30:52.196Z,13.77
2022-12-19T20:33:18.717Z,12.97
2022-12-19T20:35:44.906Z,14.47
2022-12-19T20:38:11.302Z,15.43
2022-12-19T20:40:37.439Z,13.80
2022-12-19T20:43:03.535Z,23.27
2022-12-19T20:45:30.192Z,17.27
2022-12-19T20:47:56.340Z,13.80
2022-12-19T20:50:23.892Z,16.77
2022-12-19T20:52:50.010Z,17.03
2022-12-19T20:55:16.272Z,17.73
2022-12-19T20:57:42.384Z,15.43
2022-12-19T21:00:10.101Z,12.20
2022-12-19T21:03:00.031Z,15.40
2022-12-19T21:05:22.401Z,13.63
2022-12-19T21:07:48.562Z,14.70
2022-12-19T21:10:14.765Z,13.07
2022-12-19T21:12:45.663Z,15.50
2022-12-19T21:15:13.762Z,16.27
2022-12-19T21:17:40.106Z,11.37
2022-12-19T21:20:07.100Z,12.40
2022-12-19T21:22:33.272Z,13.23
2022-12-19T21:24:59.431Z,14.50
2022-12-19T21:27:25.588Z,13.13
2022-12-19T21:29:51.709Z,13.37
2022-12-19T21:32:19.197Z,13.27
2022-12-19T21:34:45.484Z,14.87
2022-12-19T21:37:11.605Z,22.90
2022-12-19T21:39:37.727Z,21.77
2022-12-19T21:42:03.922Z,18.90
2022-12-19T21:44:30.087Z,16.33
2022-12-19T21:46:56.437Z,30.40
2022-12-19T21:49:22.572Z,19.57
2022-12-19T21:51:48.709Z,17.50
2022-12-19T21:54:14.858Z,20.77
2022-12-19T21:56:41.001Z,11.67
2022-12-19T21:59:12.629Z,13.57
2022-12-19T22:01:40.437Z,10.77
2022-12-19T22:04:14.190Z,10.87
2022-12-19T22:06:40.911Z,13.53
2022-12-19T22:09:13.533Z,16.73
2022-12-19T22:11:40.190Z,16.67
2022-12-19T22:14:06.761Z,11.37
2022-12-19T22:16:34.310Z,23.20
2022-12-19T22:19:00.653Z,18.33
2022-12-19T22:21:27.424Z,13.57
2022-12-19T22:23:58.245Z,17.87
2022-12-19T22:26:26.994Z,20.17
2022-12-19T22:28:55.545Z,19.50
2022-12-19T22:31:27.221Z,22.17
2022-12-19T22:34:04.775Z,22.73
2022-12-19T22:36:33.391Z,16.37
2022-12-19T22:39:02.267Z,10.47
2022-12-19T22:41:28.685Z,19.93
2022-12-19T22:43:55.799Z,22.10
2022-12-19T22:46:32.710Z,22.27
2022-12-19T22:49:03.316Z,35.73
2022-12-19T22:51:32.264Z,22.73
2022-12-19T22:53:58.798Z,15.43
2022-12-19T22:56:28.314Z,11.13
2022-12-19T22:59:04.161Z,18.10
2022-12-19T23:01:40.742Z,19.93
2022-12-19T23:04:10.895Z,16.93
2022-12-19T23:06:38.253Z,16.13
2022-12-19T23:09:07.153Z,18.93
2022-12-19T23:11:37.545Z,23.27
2022-12-19T23:14:07.869Z,15.20
2022-12-19T23:16:34.227Z,16.77
2022-12-19T23:19:00.483Z,13.47
2022-12-19T23:21:27.346Z,11.43
2022-12-19T23:23:55.059Z,11.83
2022-12-19T23:26:31.896Z,11.50
2022-12-19T23:29:13.627Z,11.23
2022-12-19T23:31:43.201Z,10.53
2022-12-19T23:34:09.782Z,15.40
2022-12-19T23:37:09.574Z,12.60
2022-12-19T23:39:22.230Z,25.23
2022-12-19T23:41:48.384Z,21.23
2022-12-19T23:44:14.661Z,15.57
2022-12-19T23:46:41.023Z,10.53
2022-12-19T23:49:07.184Z,13.43
2022-12-19T23:51:33.324Z,13.00
2022-12-19T23:53:59.468Z,9.47
2022-12-19T23:56:30.282Z,12.30
2022-12-19T23:58:57.378Z,10.67
